Terminal Aerodrome Forecast
Issued by NWS Topeka, KS

Home | Current Version | Previous Version | Graphics & Text | Print | Product List | Glossary On
Versions: 1 2 3 4 5 6 7 8 9 10 11 12 13 14 15 16 17 18 19 20 21
137
FTUS43 KTOP 231738
TAFTOP
TAF
KTOP 231738Z 2318/2418 08012G21KT P6SM BKN110
     FM232300 08009KT P6SM SCT015 BKN110
     FM240500 36011G22KT P6SM BKN015
     FM240800 30014G22KT P6SM BKN015=

USA.gov is the U.S. government's official web portal to all federal, state and local government web resources and services.